Rosebud, MT (59347)

9:34 AM MST on February 06, 2016 (GMT -0700)
Water Plant | | Change Station
CLOSE
Current Station
Personal Weather Station
Location: Colstrip, MT
Elevation: 3255 ft
Nearby Weather Stations
Active Advisory: High Wind Warning

Elev 3255 ft 45.89 °N, 106.63 °W | Updated 3 minutes ago

Partly Cloudy
Partly Cloudy
46.7 °F
Feels Like 47 °F
N
1.0
Wind Variable Wind from WSW
Gusts 11.0 mph

Today
High -- | Low -- °F
--% Chance of Precip.
Yesterday
High -- | Low -- °F
Precip. -- in
Pressure 29.92 in
Visibility 10.0 miles
Clouds Clear
Windchill 47 °F
Dew Point 22 °F
Humidity 38%
Rainfall 0.00 in
Snow Depth Not available.
7:22 AM 5:18 PM
Waning Crescent, 5% visible
METAR KMLS 061453Z AUTO 12005KT 10SM CLR 04/M06 A2987 RMK AO2 SLP130 T00391061 58022
Pressure 29.92 in
Visibility 10.0 miles
Clouds Clear
Windchill 47 °F
Dew Point 22 °F
Humidity 38%
Rainfall 0.00 in
Snow Depth Not available.
7:22 AM 5:18 PM
Waning Crescent, 5% visible
METAR KMLS 061453Z AUTO 12005KT 10SM CLR 04/M06 A2987 RMK AO2 SLP130 T00391061 58022

10-Day Weather Forecast

Almanac

Astronomy

Feb. 06, 2016 Rise Set
Actual Time
Civil Twilight
Nautical Twilight
Astronomical Twilight
Moon
Length of Visible Light
Length of Day
Tomorrow will be .
, % of the Moon is Illuminated

Today's Extremes

State Highs State Lows

Community

WunderPhotos

Upload Photos

1,891,015 photos uploaded!

WunderBlog® & News

Nearby

Air Quality

  Air Quality AQ Index Pollutant
Not available.

Snow Depth

Station Depth Elevation

Earthquake Activity

City Distance Mag. Time & Date
Minimum magnitude displayed is 2.5.

Coastal Water Temperatures

Place Temperature

Stations

Nearby Weather Stations

Station Location Temp. Windchill Dew Point Humidity Wind Precip. Elev Updated Type
                   

Watches & Warnings

High Wind Warning
Issued: 9:25 AM MST Feb. 6, 2016 – National Weather Service

... High Wind Warning remains in effect until 11 PM MST this
evening...

* impacts... dangerous cross winds will make travel hazardous for
high profile and Load carrying vehicles along Interstate 90...
Interstate 94... and US Highway 12... 87 and 212.

* Timing... west to northwest winds will begin to spread east
across the area by late morning behind a cold front... and
continue through the day. Winds are expected to diminish this
evening.

* Winds... peak gusts up to 65 mph are expected.

Precautionary/preparedness actions...

Winds of these magnitudes can cause property damage without extra
precautions. Motorists in high profile vehicles should use
caution until the winds subside.